Time;durP1;ratioP1;P1;durP2;ratioP2;P2;SDS_P1;SDS_P2;PMS_P1;PMS_P2;Temp;Humidity;BMP_temperature;BMP_pressure;BME280_temperature;BME280_humidity;BME280_pressure;Samples;Min_cycle;Max_cycle;Signal;HPM_P1;HPM_P2
2023/06/10 00:01:37;;;;;;;9.02;8.13;;;;;;;;;;5032930;28;20025;-73
2023/06/10 00:04:04;;;;;;;10.25;9.18;;;;;;;;;;5032427;28;20036;-74
2023/06/10 00:06:35;;;;;;;10.85;9.70;;;;;;;;;;5033039;28;20029;-74
2023/06/10 00:09:05;;;;;;;12.00;9.65;;;;;;;;;;5032039;28;20021;-74
2023/06/10 00:11:34;;;;;;;12.07;9.32;;;;;;;;;;5032035;28;20079;-73
2023/06/10 00:14:00;;;;;;;13.18;9.63;;;;;;;;;;5030710;28;20029;-73
2023/06/10 00:16:27;;;;;;;13.95;9.70;;;;;;;;;;5031300;28;20034;-74
2023/06/10 00:18:55;;;;;;;11.85;9.25;;;;;;;;;;5031395;28;20096;-74
2023/06/10 00:21:21;;;;;;;11.25;9.43;;;;;;;;;;5031797;28;20030;-74
2023/06/10 00:23:47;;;;;;;11.82;9.45;;;;;;;;;;5024581;28;20068;-74
2023/06/10 00:26:13;;;;;;;18.05;10.43;;;;;;;;;;5032660;28;20025;-74
2023/06/10 00:28:39;;;;;;;12.15;9.15;;;;;;;;;;5032167;28;20020;-74
2023/06/10 00:31:05;;;;;;;11.80;9.70;;;;;;;;;;5032161;28;20022;-74
2023/06/10 00:33:31;;;;;;;11.27;9.32;;;;;;;;;;5027736;28;20387;-74
2023/06/10 00:35:57;;;;;;;12.23;9.85;;;;;;;;;;5032072;28;20030;-74
2023/06/10 00:38:23;;;;;;;10.40;9.30;;;;;;;;;;5029551;28;20032;-74
2023/06/10 00:40:49;;;;;;;14.35;9.50;;;;;;;;;;5031434;28;20037;-74
2023/06/10 00:43:15;;;;;;;11.45;9.77;;;;;;;;;;5024193;28;20048;-74
2023/06/10 00:45:41;;;;;;;13.80;9.40;;;;;;;;;;5031567;28;20025;-74
2023/06/10 00:48:08;;;;;;;10.85;9.75;;;;;;;;;;5031387;28;20029;-74
2023/06/10 00:50:34;;;;;;;13.18;10.23;;;;;;;;;;5015647;28;20017;-74
2023/06/10 00:53:01;;;;;;;11.48;9.93;;;;;;;;;;5026575;28;20018;-74
2023/06/10 00:55:27;;;;;;;13.32;10.45;;;;;;;;;;5031200;28;20025;-74
2023/06/10 00:57:54;;;;;;;12.32;10.32;;;;;;;;;;5031183;28;20049;-74
2023/06/10 01:00:20;;;;;;;13.57;10.15;;;;;;;;;;5031143;28;20034;-74
2023/06/10 01:02:46;;;;;;;12.32;10.05;;;;;;;;;;5031419;28;20048;-75
2023/06/10 01:05:12;;;;;;;17.00;10.45;;;;;;;;;;5031170;28;20025;-74
2023/06/10 01:07:41;;;;;;;13.07;10.27;;;;;;;;;;5031143;28;20032;-74
2023/06/10 01:10:10;;;;;;;12.02;10.25;;;;;;;;;;5017481;28;20028;-74
2023/06/10 01:12:56;;;;;;;14.00;10.15;;;;;;;;;;5015467;28;20387;-74
2023/06/10 01:15:22;;;;;;;11.73;9.30;;;;;;;;;;5023063;28;20076;-75
2023/06/10 01:17:58;;;;;;;10.68;9.68;;;;;;;;;;5031324;28;20467;-75
2023/06/10 01:20:26;;;;;;;12.48;10.07;;;;;;;;;;5031117;28;20026;-75
2023/06/10 01:22:54;;;;;;;12.20;10.02;;;;;;;;;;5031293;28;20029;-74
2023/06/10 01:25:27;;;;;;;10.02;8.98;;;;;;;;;;5032551;28;20079;-73
2023/06/10 01:27:54;;;;;;;13.73;9.30;;;;;;;;;;5035180;28;20064;-73
2023/06/10 01:30:23;;;;;;;10.02;8.57;;;;;;;;;;5034946;28;20022;-73
2023/06/10 01:32:51;;;;;;;10.90;9.18;;;;;;;;;;5034892;28;20033;-73
2023/06/10 01:35:18;;;;;;;9.88;8.48;;;;;;;;;;5035040;28;20490;-74
2023/06/10 01:37:46;;;;;;;10.05;9.05;;;;;;;;;;5035110;28;20740;-73
2023/06/10 01:40:12;;;;;;;9.25;8.35;;;;;;;;;;5035100;28;20021;-73
2023/06/10 01:42:38;;;;;;;9.82;8.45;;;;;;;;;;5034642;28;20488;-73
2023/06/10 01:45:05;;;;;;;11.00;8.82;;;;;;;;;;5036036;28;20025;-73
2023/06/10 01:47:31;;;;;;;9.82;8.80;;;;;;;;;;5034273;28;20032;-73
2023/06/10 01:49:57;;;;;;;11.20;8.15;;;;;;;;;;5034683;28;20026;-73
2023/06/10 01:52:23;;;;;;;9.20;8.02;;;;;;;;;;5034181;28;20109;-73
2023/06/10 01:54:49;;;;;;;10.50;8.65;;;;;;;;;;5034366;28;20017;-73
2023/06/10 01:57:15;;;;;;;10.70;8.43;;;;;;;;;;5034106;28;20022;-73
2023/06/10 01:59:44;;;;;;;9.45;7.82;;;;;;;;;;5023350;28;20056;-74
2023/06/10 02:02:10;;;;;;;9.70;7.95;;;;;;;;;;5034171;28;20037;-74
2023/06/10 02:04:36;;;;;;;9.82;8.25;;;;;;;;;;5034282;28;20554;-75
2023/06/10 02:07:05;;;;;;;9.30;8.30;;;;;;;;;;5034619;28;20029;-74
2023/06/10 02:09:34;;;;;;;10.00;8.18;;;;;;;;;;5025463;28;20514;-74
2023/06/10 02:12:00;;;;;;;9.50;8.45;;;;;;;;;;5034900;28;20044;-74
2023/06/10 02:14:26;;;;;;;9.95;8.05;;;;;;;;;;5033909;28;20017;-74
2023/06/10 02:16:56;;;;;;;9.10;8.20;;;;;;;;;;5034177;28;20506;-74
2023/06/10 02:19:22;;;;;;;9.30;8.27;;;;;;;;;;5033826;28;20029;-73
2023/06/10 02:21:48;;;;;;;10.93;9.55;;;;;;;;;;5034356;28;20029;-74
2023/06/10 02:24:14;;;;;;;10.38;8.85;;;;;;;;;;5033165;28;20052;-74
2023/06/10 02:26:41;;;;;;;10.38;9.30;;;;;;;;;;5019902;28;20025;-74
2023/06/10 02:29:07;;;;;;;10.25;9.15;;;;;;;;;;5039830;28;20025;-74
2023/06/10 02:31:35;;;;;;;10.95;9.75;;;;;;;;;;5040715;28;20029;-74
2023/06/10 02:34:01;;;;;;;10.60;9.25;;;;;;;;;;5043312;28;20029;-74
2023/06/10 02:36:27;;;;;;;12.25;10.23;;;;;;;;;;5043104;28;20025;-74
2023/06/10 02:38:53;;;;;;;12.15;10.90;;;;;;;;;;5044198;28;20018;-74
2023/06/10 02:41:21;;;;;;;11.68;10.52;;;;;;;;;;5036410;28;20108;-74
2023/06/10 02:43:47;;;;;;;13.10;9.75;;;;;;;;;;5034097;28;20056;-74
2023/06/10 02:46:13;;;;;;;12.60;10.40;;;;;;;;;;5034162;28;20061;-74
2023/06/10 02:48:46;;;;;;;11.68;10.48;;;;;;;;;;5031574;28;20029;-74
2023/06/10 02:51:12;;;;;;;12.63;10.57;;;;;;;;;;5033972;28;20781;-73
2023/06/10 02:53:38;;;;;;;11.55;10.07;;;;;;;;;;5033997;28;20071;-74
2023/06/10 02:56:04;;;;;;;11.77;10.57;;;;;;;;;;5033716;28;20037;-73
2023/06/10 02:58:30;;;;;;;13.95;12.60;;;;;;;;;;5033207;28;20079;-74
2023/06/10 03:00:56;;;;;;;13.38;11.55;;;;;;;;;;5033327;28;20025;-74
2023/06/10 03:03:22;;;;;;;15.57;11.25;;;;;;;;;;5033099;28;20025;-73
2023/06/10 03:05:48;;;;;;;13.15;11.75;;;;;;;;;;5033139;28;20022;-74
2023/06/10 03:08:15;;;;;;;14.10;12.60;;;;;;;;;;5032622;28;20025;-74
2023/06/10 03:10:41;;;;;;;14.00;11.63;;;;;;;;;;5016127;28;20013;-73
2023/06/10 03:13:07;;;;;;;17.20;11.48;;;;;;;;;;5032743;28;20489;-74
2023/06/10 03:15:33;;;;;;;17.30;13.07;;;;;;;;;;5032806;28;20097;-73
2023/06/10 03:18:00;;;;;;;17.90;11.70;;;;;;;;;;5028210;28;20061;-74
2023/06/10 03:20:27;;;;;;;17.38;11.38;;;;;;;;;;5032923;28;20033;-74
2023/06/10 03:22:53;;;;;;;16.60;12.18;;;;;;;;;;5028513;28;20030;-74
2023/06/10 03:25:20;;;;;;;13.52;11.15;;;;;;;;;;5032602;28;20575;-74
2023/06/10 03:27:46;;;;;;;14.27;10.73;;;;;;;;;;5032771;28;20029;-74
2023/06/10 03:30:13;;;;;;;14.00;10.30;;;;;;;;;;5033204;28;20028;-74
2023/06/10 03:32:40;;;;;;;12.32;9.57;;;;;;;;;;5033244;28;20018;-74
2023/06/10 03:35:07;;;;;;;9.73;8.73;;;;;;;;;;5031865;28;20468;-74
2023/06/10 03:37:33;;;;;;;13.95;9.32;;;;;;;;;;5032050;28;20030;-74
2023/06/10 03:39:59;;;;;;;9.68;8.68;;;;;;;;;;5032251;28;20033;-74
2023/06/10 03:42:25;;;;;;;10.52;8.38;;;;;;;;;;5032676;28;20029;-74
2023/06/10 03:44:51;;;;;;;8.93;8.02;;;;;;;;;;5024064;28;20372;-74
2023/06/10 03:47:17;;;;;;;10.45;7.75;;;;;;;;;;5032049;28;20476;-74
2023/06/10 03:49:43;;;;;;;11.88;8.02;;;;;;;;;;5031771;28;20033;-74
2023/06/10 03:52:09;;;;;;;9.88;7.78;;;;;;;;;;5032316;28;20083;-74
2023/06/10 03:54:35;;;;;;;7.82;7.13;;;;;;;;;;5032396;28;20022;-75
2023/06/10 03:57:02;;;;;;;9.15;7.50;;;;;;;;;;5032105;28;20078;-75
2023/06/10 03:59:28;;;;;;;9.35;7.63;;;;;;;;;;5022800;28;20484;-75
2023/06/10 04:01:54;;;;;;;8.27;7.38;;;;;;;;;;5032045;28;20036;-75
2023/06/10 04:04:21;;;;;;;9.00;6.72;;;;;;;;;;5031686;28;20183;-74
2023/06/10 04:06:48;;;;;;;12.63;7.32;;;;;;;;;;5032058;28;20441;-75
2023/06/10 04:09:14;;;;;;;8.13;6.68;;;;;;;;;;5031918;28;20033;-74
2023/06/10 04:11:40;;;;;;;7.50;6.60;;;;;;;;;;5031800;28;20025;-74
2023/06/10 04:14:06;;;;;;;9.13;7.13;;;;;;;;;;5032374;28;20025;-75
2023/06/10 04:16:32;;;;;;;10.30;6.80;;;;;;;;;;5031690;28;20017;-74
2023/06/10 04:19:00;;;;;;;12.43;6.95;;;;;;;;;;5017645;28;20026;-74
2023/06/10 04:21:26;;;;;;;9.15;6.85;;;;;;;;;;5031643;28;20025;-74
2023/06/10 04:23:52;;;;;;;14.77;6.57;;;;;;;;;;5032255;28;20079;-75
2023/06/10 04:26:18;;;;;;;9.38;7.03;;;;;;;;;;5016445;28;20103;-74
2023/06/10 04:28:44;;;;;;;11.35;6.47;;;;;;;;;;5031612;28;20021;-74
2023/06/10 04:31:13;;;;;;;7.88;6.20;;;;;;;;;;5018808;28;20113;-74
2023/06/10 04:33:39;;;;;;;11.15;6.93;;;30.30;41.30;;;;;;5030602;28;20030;-74
2023/06/10 04:36:06;;;;;;;8.48;6.60;;;30.60;40.70;;;;;;5031123;28;20033;-74
2023/06/10 04:38:33;;;;;;;8.80;5.97;;;31.00;39.80;;;;;;5015511;28;20045;-74
2023/06/10 04:40:59;;;;;;;9.57;6.05;;;31.00;39.80;;;;;;5031887;28;20067;-74
2023/06/10 04:43:24;;;;;;;8.18;5.75;;;31.40;38.90;;;;;;5031725;28;20034;-75
2023/06/10 04:45:50;;;;;;;10.15;6.18;;;31.90;38.30;;;;;;5031634;28;20395;-74
2023/06/10 04:48:15;;;;;;;9.77;6.40;;;32.20;37.10;;;;;;5031172;28;20030;-75
2023/06/10 04:50:41;;;;;;;7.30;6.60;;;32.30;36.40;;;;;;5031644;28;20097;-75
2023/06/10 04:53:07;;;;;;;8.15;5.60;;;32.30;36.60;;;;;;5031445;28;20522;-74
2023/06/10 04:55:33;;;;;;;7.85;6.05;;;31.90;37.30;;;;;;5031464;28;20455;-75
2023/06/10 04:57:59;;;;;;;7.85;5.70;;;32.40;36.50;;;;;;5031148;28;20029;-75
2023/06/10 05:00:25;;;;;;;9.38;6.03;;;32.80;35.90;;;;;;5033983;28;20029;-74
2023/06/10 05:02:51;;;;;;;7.85;5.80;;;32.50;36.30;;;;;;5035238;28;20014;-74
2023/06/10 05:05:17;;;;;;;6.82;5.50;;;32.30;36.40;;;;;;5035097;28;20052;-75
2023/06/10 05:07:43;;;;;;;7.45;5.80;;;33.00;35.90;;;;;;5034929;28;20411;-75
2023/06/10 05:10:09;;;;;;;7.65;5.25;;;33.50;34.60;;;;;;5035206;28;20164;-74
2023/06/10 05:12:34;;;;;;;7.75;5.60;;;33.90;34.00;;;;;;5035192;28;20025;-74
2023/06/10 05:15:01;;;;;;;8.13;5.40;;;33.60;34.30;;;;;;5034700;28;20022;-75
2023/06/10 05:17:27;;;;;;;6.30;4.82;;;33.60;34.80;;;;;;5030869;28;20237;-74
2023/06/10 05:19:52;;;;;;;9.10;5.78;;;34.10;34.20;;;;;;5034961;28;20390;-74
2023/06/10 05:22:18;;;;;;;6.07;5.47;;;34.60;33.70;;;;;;5034233;28;20109;-73
2023/06/10 05:24:44;;;;;;;7.03;5.15;;;35.10;32.80;;;;;;5034060;28;20108;-73
2023/06/10 05:27:10;;;;;;;8.20;5.20;;;35.20;32.80;;;;;;5033684;28;20026;-73
2023/06/10 05:29:36;;;;;;;6.50;4.80;;;35.90;31.60;;;;;;5034748;28;20108;-73
2023/06/10 05:32:03;;;;;;;5.25;4.60;;;35.90;31.40;;;;;;5034721;28;20560;-73
2023/06/10 05:34:29;;;;;;;7.75;5.95;;;36.20;31.00;;;;;;5034631;28;20087;-73
2023/06/10 05:36:55;;;;;;;9.35;6.10;;;;;;;;;;5034997;28;20430;-73
2023/06/10 05:39:21;;;;;;;7.28;5.57;;;;;;;;;;5026392;28;20120;-73
2023/06/10 05:41:47;;;;;;;6.38;5.28;;;;;;;;;;5034848;28;20037;-74
2023/06/10 05:44:13;;;;;;;11.95;6.03;;;;;;;;;;5033803;28;20082;-74
2023/06/10 05:46:39;;;;;;;8.00;6.70;;;;;;;;;;5034263;28;20036;-73
2023/06/10 05:49:05;;;;;;;8.38;6.22;;;;;;;;;;5032969;28;20017;-74
2023/06/10 05:51:31;;;;;;;7.05;6.22;;;;;;;;;;5024004;28;20036;-74
2023/06/10 05:53:57;;;;;;;6.57;5.97;;;;;;;;;;5033121;28;20025;-74
2023/06/10 05:56:25;;;;;;;6.68;5.47;;;29.00;44.00;;;;;;5034132;28;20442;-74
2023/06/10 05:58:51;;;;;;;11.55;5.80;;;29.50;43.30;;;;;;5034177;28;20464;-74
2023/06/10 06:01:17;;;;;;;8.32;5.85;;;;;;;;;;5033050;28;20044;-74
2023/06/10 06:03:43;;;;;;;6.68;5.10;;;;;;;;;;5032139;28;20033;-74
2023/06/10 06:06:08;;;;;;;8.40;6.07;;;29.20;42.90;;;;;;5027890;28;20539;-74
2023/06/10 06:08:34;;;;;;;5.90;5.30;;;30.70;40.50;;;;;;5030600;28;20033;-74
2023/06/10 06:11:00;;;;;;;8.32;5.30;;;32.80;36.90;;;;;;5030940;28;20096;-74
2023/06/10 06:13:25;;;;;;;6.28;5.07;;;34.60;34.00;;;;;;5030473;28;20017;-74
2023/06/10 06:15:51;;;;;;;6.43;5.38;;;35.30;32.80;;;;;;5030795;28;20436;-73
2023/06/10 06:18:18;;;;;;;6.35;5.10;;;33.50;34.10;;;;;;5032024;28;20025;-74
2023/06/10 06:20:44;;;;;;;7.05;5.25;;;;;;;;;;5032180;28;20025;-74
2023/06/10 06:23:10;;;;;;;7.07;4.53;;;35.20;32.80;;;;;;5032247;28;20399;-74
2023/06/10 06:25:38;;;;;;;5.63;4.00;;;35.60;31.60;;;;;;5031891;28;20021;-74
2023/06/10 06:28:08;;;;;;;5.32;3.97;;;33.90;32.90;;;;;;5032987;28;20021;-73
2023/06/10 06:30:35;;;;;;;8.27;4.38;;;34.50;32.40;;;;;;5017603;28;20092;-74
2023/06/10 06:33:00;;;;;;;5.03;3.90;;;33.00;33.70;;;;;;5033579;28;20029;-74
2023/06/10 06:35:26;;;;;;;5.20;3.55;;;;;;;;;;5033147;28;20567;-75
2023/06/10 06:37:52;;;;;;;4.85;3.90;;;32.90;34.00;;;;;;5032363;28;20453;-74
2023/06/10 06:40:18;;;;;;;4.97;3.50;;;;;;;;;;5033531;28;20029;-74
2023/06/10 06:42:44;;;;;;;4.40;4.00;;;29.50;40.10;;;;;;5033380;28;20099;-74
2023/06/10 06:45:10;;;;;;;8.00;3.97;;;29.40;40.70;;;;;;5033631;28;20072;-74
2023/06/10 06:47:35;;;;;;;7.03;4.40;;;29.30;41.10;;;;;;5033367;28;20033;-73
2023/06/10 06:50:02;;;;;;;8.15;4.78;;;28.80;41.90;;;;;;5033321;28;20026;-73
2023/06/10 06:52:28;;;;;;;5.95;4.40;;;;;;;;;;5016461;28;20029;-73
2023/06/10 06:54:54;;;;;;;6.03;4.32;;;;;;;;;;5033826;28;20489;-73
2023/06/10 06:57:20;;;;;;;7.15;4.85;;;;;;;;;;5032979;28;20160;-73
2023/06/10 06:59:46;;;;;;;6.30;4.93;;;;;;;;;;5032994;28;20056;-72
2023/06/10 07:02:12;;;;;;;6.15;4.60;;;;;;;;;;5033125;28;20368;-74
2023/06/10 07:04:39;;;;;;;9.30;5.57;;;;;;;;;;5016139;28;20018;-73
2023/06/10 07:07:05;;;;;;;7.22;5.05;;;;;;;;;;5032668;28;20026;-73
2023/06/10 07:09:31;;;;;;;4.85;4.43;;;;;;;;;;5032650;28;20060;-73
2023/06/10 07:11:57;;;;;;;6.68;4.50;;;;;;;;;;5020082;28;20095;-73
2023/06/10 07:14:23;;;;;;;7.25;4.47;;;;;;;;;;5030144;28;20479;-73
2023/06/10 07:16:49;;;;;;;4.63;4.22;;;;;;;;;;5032788;28;20052;-73
2023/06/10 07:19:15;;;;;;;6.40;3.88;;;;;;;;;;5032780;28;20030;-74
2023/06/10 07:21:41;;;;;;;6.97;4.40;;;;;;;;;;5032734;28;20403;-74
2023/06/10 07:24:07;;;;;;;5.80;4.72;;;;;;;;;;5031676;28;20064;-74
2023/06/10 07:26:33;;;;;;;5.78;4.85;;;;;;;;;;5032896;28;20021;-75
2023/06/10 07:28:59;;;;;;;5.53;4.57;;;;;;;;;;5032544;28;20030;-75
2023/06/10 07:31:25;;;;;;;5.60;4.65;;;;;;;;;;5032343;28;20070;-75
2023/06/10 07:33:51;;;;;;;8.25;5.00;;;;;;;;;;5011682;28;20068;-76
2023/06/10 07:36:17;;;;;;;5.18;4.57;;;;;;;;;;5032631;28;20045;-75
2023/06/10 07:38:43;;;;;;;5.93;4.43;;;;;;;;;;5032239;28;20080;-75
2023/06/10 07:41:10;;;;;;;6.63;4.70;;;;;;;;;;5031639;28;20029;-75
2023/06/10 07:43:46;;;;;;;4.85;4.35;;;;;;;;;;5102174;27;21026;-74
2023/06/10 07:46:12;;;;;;;5.45;4.47;;;;;;;;;;5071195;28;20106;-75
2023/06/10 07:48:38;;;;;;;4.22;3.80;;;;;;;;;;5083593;28;20475;-76
2023/06/10 07:51:04;;;;;;;6.00;4.57;;;;;;;;;;5075554;28;20028;-76
2023/06/10 07:53:30;;;;;;;6.72;4.65;;;;;;;;;;5076533;28;20017;-76
2023/06/10 07:55:56;;;;;;;5.63;4.22;;;;;;;;;;5083599;28;20034;-76
2023/06/10 07:58:22;;;;;;;6.15;4.45;;;;;;;;;;5086709;28;20040;-76
2023/06/10 08:00:48;;;;;;;5.57;4.53;;;;;;;;;;5074380;28;20016;-75
2023/06/10 08:03:14;;;;;;;10.50;4.32;;;;;;;;;;5079200;28;20048;-76
2023/06/10 08:05:40;;;;;;;6.40;4.60;;;;;;;;;;5081542;28;20028;-75
2023/06/10 08:08:06;;;;;;;5.53;4.30;;;;;;;;;;5070814;28;20116;-75
2023/06/10 08:10:33;;;;;;;6.85;4.22;;;;;;;;;;5059256;28;20523;-75
2023/06/10 08:12:59;;;;;;;6.65;4.88;;;;;;;;;;5068010;28;20042;-76
2023/06/10 08:15:25;;;;;;;5.95;4.72;;;;;;;;;;5078791;28;20104;-76
2023/06/10 08:17:51;;;;;;;5.07;4.25;;;;;;;;;;5073466;28;20095;-75
2023/06/10 08:20:18;;;;;;;4.93;3.88;;;;;;;;;;5084652;28;20012;-75
2023/06/10 08:22:44;;;;;;;5.88;4.55;;;32.20;39.50;;;;;;5071760;28;20034;-76
2023/06/10 08:25:10;;;;;;;8.27;4.18;;;32.40;38.70;;;;;;5076733;28;20020;-75
2023/06/10 08:27:35;;;;;;;6.65;4.05;;;32.80;38.70;;;;;;5078375;28;20107;-75
2023/06/10 08:30:01;;;;;;;8.40;4.40;;;33.20;38.30;;;;;;5070643;28;20126;-75
2023/06/10 08:32:27;;;;;;;8.40;4.38;;;33.40;36.60;;;;;;5077695;28;20031;-75
2023/06/10 08:34:53;;;;;;;5.68;4.13;;;32.50;38.40;;;;;;5069938;28;20024;-76
2023/06/10 08:37:18;;;;;;;5.03;3.80;;;33.30;37.00;;;;;;5077726;28;20021;-75
2023/06/10 08:39:44;;;;;;;6.32;4.47;;;33.40;36.50;;;;;;5081575;28;20024;-75
2023/06/10 08:42:27;;;;;;;5.28;4.43;;;31.90;38.90;;;;;;5069820;28;20096;-76
2023/06/10 08:44:55;;;;;;;6.22;4.13;;;31.50;39.10;;;;;;5080878;28;20067;-75
2023/06/10 08:47:23;;;;;;;4.53;4.13;;;31.50;40.60;;;;;;5079729;28;20032;-74
2023/06/10 08:49:49;;;;;;;5.63;4.40;;;32.20;40.40;;;;;;5078726;28;20025;-75
2023/06/10 08:52:20;;;;;;;9.73;4.70;;;33.00;38.90;;;;;;5089734;28;20135;-75
2023/06/10 08:55:05;;;;;;;5.38;4.35;;;33.00;36.70;;;;;;5065707;28;20033;-75
2023/06/10 08:57:31;;;;;;;4.97;4.13;;;33.30;37.40;;;;;;5067121;28;20039;-75
2023/06/10 08:59:58;;;;;;;4.60;3.63;;;34.30;35.00;;;;;;5070483;28;20024;-74
2023/06/10 09:02:28;;;;;;;5.55;4.05;;;33.90;35.70;;;;;;5072374;28;20025;-75
2023/06/10 09:04:56;;;;;;;5.82;4.10;;;34.30;34.10;;;;;;5060911;28;20025;-75
2023/06/10 09:07:22;;;;;;;5.25;4.00;;;33.00;37.10;;;;;;5061786;28;20032;-75
2023/06/10 09:09:49;;;;;;;5.07;4.10;;;32.20;38.00;;;;;;5061438;28;20020;-76
2023/06/10 09:12:15;;;;;;;5.85;4.47;;;31.70;39.70;;;;;;5053029;28;20041;-75
2023/06/10 09:14:42;;;;;;;4.80;4.28;;;31.50;40.10;;;;;;5068234;28;20048;-75
2023/06/10 09:17:07;;;;;;;7.32;4.68;;;31.80;40.10;;;;;;5061478;28;20033;-76
2023/06/10 09:19:35;;;;;;;5.00;4.50;;;30.40;41.60;;;;;;5059342;28;20090;-76
2023/06/10 09:22:01;;;;;;;6.53;4.78;;;30.40;42.30;;;;;;5067906;28;20417;-75
2023/06/10 09:24:26;;;;;;;5.18;4.03;;;30.50;42.50;;;;;;5056642;28;20025;-75
2023/06/10 09:27:06;;;;;;;6.28;4.30;;;30.70;42.70;;;;;;5066984;28;20040;-75
2023/06/10 09:29:45;;;;;;;6.35;5.07;;;30.90;42.30;;;;;;5063870;28;20028;-76
2023/06/10 09:32:10;;;;;;;5.07;4.57;;;30.10;42.30;;;;;;5056638;28;20017;-76
2023/06/10 09:34:36;;;;;;;6.85;4.90;;;29.50;43.40;;;;;;5069189;28;20025;-75
2023/06/10 09:37:02;;;;;;;7.53;4.72;;;;;;;;;;5060758;28;20031;-75
2023/06/10 09:39:28;;;;;;;7.43;4.95;;;;;;;;;;5061964;28;20071;-75
2023/06/10 09:41:54;;;;;;;6.18;4.70;;;;;;;;;;5067988;28;20033;-75
2023/06/10 09:44:21;;;;;;;6.10;4.70;;;;;;;;;;5056595;28;20025;-75
2023/06/10 09:46:48;;;;;;;8.10;5.18;;;;;;;;;;5067964;28;20040;-75
2023/06/10 09:49:14;;;;;;;8.57;4.82;;;;;;;;;;5062194;28;20033;-75
2023/06/10 09:51:50;;;;;;;13.73;6.13;;;;;;;;;;5060654;28;20104;-75
2023/06/10 09:54:18;;;;;;;5.68;4.53;;;;;;;;;;5068292;28;20024;-75
2023/06/10 09:56:47;;;;;;;7.00;5.40;;;;;;;;;;5056645;28;20032;-77
2023/06/10 09:59:13;;;;;;;9.02;5.00;;;;;;;;;;5063834;28;20029;-76
2023/06/10 10:01:39;;;;;;;6.13;5.43;;;;;;;;;;5065483;28;20040;-76
2023/06/10 10:04:05;;;;;;;6.03;5.10;;;;;;;;;;5056412;28;20025;-76
2023/06/10 10:06:31;;;;;;;6.95;5.28;;;;;;;;;;5066620;28;20100;-76
2023/06/10 10:08:57;;;;;;;10.70;5.07;;;;;;;;;;5059427;28;20032;-76
2023/06/10 10:11:25;;;;;;;8.93;5.28;;;;;;;;;;5062512;28;20024;-76
2023/06/10 10:13:52;;;;;;;6.30;5.15;;;;;;;;;;5066913;28;20032;-75
2023/06/10 10:16:20;;;;;;;7.45;5.47;;;;;;;;;;5056248;28;20097;-76
2023/06/10 10:18:54;;;;;;;9.25;4.70;;;;;;;;;;5067111;28;20025;-75
2023/06/10 10:21:22;;;;;;;7.57;4.93;;;;;;;;;;5062766;28;20017;-75
2023/06/10 10:24:07;;;;;;;5.70;4.57;;;;;;;;;;5058945;28;20021;-75
2023/06/10 10:26:34;;;;;;;5.97;5.38;;;;;;;;;;5039315;28;20099;-75
2023/06/10 10:29:00;;;;;;;5.25;4.68;;;;;;;;;;5063662;28;20032;-75
2023/06/10 10:31:28;;;;;;;4.70;4.25;;;;;;;;;;5063359;28;20054;-74
2023/06/10 10:33:59;;;;;;;7.97;5.00;;;;;;;;;;5050483;28;20127;-77
2023/06/10 10:36:28;;;;;;;5.82;4.60;;;;;;;;;;5065663;28;20017;-78
2023/06/10 10:38:54;;;;;;;7.93;5.22;;;;;;;;;;5059486;28;20109;-78
2023/06/10 10:41:21;;;;;;;5.38;4.85;;;;;;;;;;5065379;28;20387;-77
2023/06/10 10:43:48;;;;;;;11.52;4.85;;;;;;;;;;5067918;28;20051;-76
2023/06/10 10:46:15;;;;;;;6.97;4.95;;;;;;;;;;5049530;28;20029;-77
2023/06/10 10:48:41;;;;;;;7.30;4.80;;;;;;;;;;5065424;28;20024;-77
2023/06/10 10:51:08;;;;;;;5.00;4.50;;;;;;;;;;5057944;28;20082;-76
2023/06/10 10:53:34;;;;;;;6.43;5.00;;;;;;;;;;5063588;28;20108;-77
2023/06/10 10:56:00;;;;;;;6.65;4.75;;;;;;;;;;5056302;28;20056;-77
2023/06/10 10:58:26;;;;;;;7.10;4.47;;;;;;;;;;5066658;28;20578;-77
2023/06/10 11:00:52;;;;;;;6.80;4.30;;;;;;;;;;5056808;28;20035;-77
2023/06/10 11:03:18;;;;;;;5.30;4.38;;;;;;;;;;5063158;28;20059;-77
2023/06/10 11:05:48;;;;;;;9.52;4.75;;;;;;;;;;5055351;28;20021;-77
2023/06/10 11:08:14;;;;;;;6.68;4.53;;;;;;;;;;5063403;28;20071;-77
2023/06/10 11:10:42;;;;;;;5.60;4.40;;;;;;;;;;5053152;28;20039;-77
2023/06/10 11:13:14;;;;;;;6.78;4.25;;;;;;;;;;5057322;28;20032;-77
2023/06/10 11:15:43;;;;;;;13.02;4.97;;;;;;;;;;5062465;28;20394;-77
2023/06/10 11:18:09;;;;;;;8.60;4.60;;;;;;;;;;5054272;28;20495;-77
2023/06/10 11:20:45;;;;;;;5.78;4.00;;;;;;;;;;5067767;28;20033;-77
2023/06/10 11:23:11;;;;;;;6.50;4.78;;;;;;;;;;5060327;28;20461;-78
2023/06/10 11:25:40;;;;;;;5.65;4.70;;;;;;;;;;5059103;28;20028;-78
2023/06/10 11:28:19;;;;;;;5.68;4.53;;;;;;;;;;5060325;28;20024;-78
2023/06/10 11:30:45;;;;;;;5.65;4.25;;;;;;;;;;5054807;28;20033;-77
2023/06/10 11:33:17;;;;;;;5.65;4.28;;;;;;;;;;5058337;28;20020;-78
2023/06/10 11:35:44;;;;;;;6.35;5.05;;;;;;;;;;5063815;28;20443;-77
2023/06/10 11:38:10;;;;;;;6.65;5.25;;;;;;;;;;5050527;28;20024;-78
2023/06/10 11:40:37;;;;;;;10.55;5.28;;;;;;;;;;5060834;28;20029;-78
2023/06/10 11:43:05;;;;;;;8.20;4.65;;;;;;;;;;5049929;28;20112;-78
2023/06/10 11:45:31;;;;;;;7.38;4.55;;;;;;;;;;5046334;28;20395;-78
2023/06/10 11:48:00;;;;;;;10.52;5.30;;;;;;;;;;5060264;28;20036;-78
2023/06/10 11:50:32;;;;;;;7.18;5.65;;;;;;;;;;5064113;28;20017;-78
2023/06/10 11:52:59;;;;;;;6.07;4.82;;;;;;;;;;5057778;28;20020;-78
2023/06/10 11:55:44;;;;;;;6.70;4.95;;;;;;;;;;5060711;28;20029;-78
2023/06/10 11:58:20;;;;;;;9.68;4.93;;;;;;;;;;5066239;28;20486;-78
2023/06/10 12:00:50;;;;;;;7.05;5.13;;;;;;;;;;5056283;28;20040;-78
2023/06/10 12:03:17;;;;;;;6.97;5.45;;;;;;;;;;5061420;28;20028;-78
2023/06/10 12:05:56;;;;;;;8.50;4.47;;;;;;;;;;5063562;28;20024;-78
2023/06/10 12:08:22;;;;;;;7.85;4.38;;;;;;;;;;5053724;28;20041;-78
2023/06/10 12:10:48;;;;;;;6.22;4.35;;;;;;;;;;5064358;28;20021;-77
2023/06/10 12:13:14;;;;;;;8.02;4.55;;;;;;;;;;5060156;28;20032;-78
2023/06/10 12:15:41;;;;;;;4.90;4.07;;;;;;;;;;5058967;28;20094;-78
2023/06/10 12:18:07;;;;;;;12.18;5.18;;;;;;;;;;5067248;28;20527;-70
2023/06/10 12:20:33;;;;;;;7.68;4.80;;;;;;;;;;5037951;28;20067;-69
2023/06/10 12:23:01;;;;;;;7.95;4.13;;;;;;;;;;5063646;28;20045;-69
2023/06/10 12:25:27;;;;;;;5.60;4.90;;;;;;;;;;5060394;28;20184;-69
2023/06/10 12:27:54;;;;;;;4.88;4.28;;;;;;;;;;5054585;28;20102;-69
2023/06/10 12:30:25;;;;;;;10.45;4.55;;;;;;;;;;5069474;28;20024;-69
2023/06/10 12:32:55;;;;;;;8.98;4.88;;;;;;;;;;5060109;28;20031;-69
2023/06/10 12:35:24;;;;;;;5.82;4.43;;;;;;;;;;5064404;28;20017;-70
2023/06/10 12:37:57;;;;;;;8.13;4.45;;;;;;;;;;5068375;28;20031;-69
2023/06/10 12:40:28;;;;;;;10.13;4.93;;;;;;;;;;5057731;28;20025;-69
2023/06/10 12:42:55;;;;;;;5.70;4.15;;;;;;;;;;5067717;28;20137;-69
2023/06/10 12:45:31;;;;;;;5.75;4.10;;;;;;;;;;5064140;28;20070;-69
2023/06/10 12:48:12;;;;;;;10.82;5.00;;;;;;;;;;5058927;28;20491;-70
2023/06/10 12:50:43;;;;;;;5.90;4.70;;;;;;;;;;5042394;28;20502;-68
2023/06/10 12:53:09;;;;;;;7.50;4.90;;;;;;;;;;5065524;28;20436;-68
2023/06/10 12:55:36;;;;;;;7.57;4.65;;;;;;;;;;5064203;28;20025;-67
2023/06/10 12:58:02;;;;;;;7.32;4.35;;;;;;;;;;5055085;28;20032;-67
2023/06/10 13:00:32;;;;;;;7.28;4.40;;;;;;;;;;5068377;28;20037;-68
2023/06/10 13:03:01;;;;;;;13.63;4.88;;;;;;;;;;5059128;28;20028;-69
2023/06/10 13:05:27;;;;;;;10.68;5.30;;;;;;;;;;5061266;28;20032;-68
2023/06/10 13:07:54;;;;;;;17.67;13.52;;;;;;;;;;5065315;28;20025;-68
2023/06/10 13:10:21;;;;;;;18.33;12.25;;;;;;;;;;5055985;28;20082;-69
2023/06/10 13:12:47;;;;;;;7.88;6.15;;;;;;;;;;5068493;28;20426;-69
2023/06/10 13:15:14;;;;;;;6.55;4.72;;;;;;;;;;5058598;28;20024;-69
2023/06/10 13:17:40;;;;;;;7.55;5.28;;;;;;;;;;5055312;28;20017;-69
2023/06/10 13:20:07;;;;;;;12.68;8.30;;;;;;;;;;5065677;28;20384;-68
2023/06/10 13:22:36;;;;;;;7.50;5.13;;;;;;;;;;5065793;28;20051;-68
2023/06/10 13:25:08;;;;;;;23.30;18.60;;;;;;;;;;5066196;28;20017;-68
2023/06/10 13:27:35;;;;;;;12.60;7.07;;;;;;;;;;5065380;28;20105;-68
2023/06/10 13:30:01;;;;;;;26.55;16.20;;;;;;;;;;5057387;28;20075;-67
2023/06/10 13:32:27;;;;;;;26.77;17.33;;;;;;;;;;5069375;28;20032;-68
2023/06/10 13:34:53;;;;;;;32.00;24.55;;;;;;;;;;5067345;28;20025;-68
2023/06/10 13:37:20;;;;;;;6.60;4.65;;;;;;;;;;5062775;28;20090;-68
2023/06/10 13:39:48;;;;;;;14.43;9.02;;;;;;;;;;5059530;28;20131;-69
2023/06/10 13:42:14;;;;;;;7.55;6.60;;;;;;;;;;5069390;28;20775;-68
2023/06/10 13:44:40;;;;;;;8.05;5.53;;;;;;;;;;5053932;28;20033;-69
2023/06/10 13:47:07;;;;;;;5.45;4.35;;;;;;;;;;5059904;28;20092;-69
2023/06/10 13:49:33;;;;;;;17.30;11.80;;;;;;;;;;5067160;28;20103;-69
2023/06/10 13:51:59;;;;;;;7.28;5.22;;;;;;;;;;5067231;28;20021;-69
2023/06/10 13:54:25;;;;;;;8.05;5.78;;;;;;;;;;5064698;28;20406;-68
2023/06/10 13:56:51;;;;;;;3.92;3.25;;;;;;;;;;5058535;28;20056;-67
2023/06/10 13:59:17;;;;;;;5.97;4.15;;;;;;;;;;5058255;28;20021;-68
2023/06/10 14:01:43;;;;;;;8.27;4.60;;;;;;;;;;5054301;28;20024;-68
2023/06/10 14:04:09;;;;;;;4.72;4.13;;;;;;;;;;5062184;28;20044;-68
2023/06/10 14:06:35;;;;;;;6.93;3.60;;;;;;;;;;5072269;28;20101;-68
2023/06/10 14:09:01;;;;;;;5.35;4.32;;;;;;;;;;5056760;28;20017;-67